OBBI/BAH METAR and TAF weather

Enter ICAO airport designator
Station Type Date Time Source
OBBI METAR 2020/01/21 09:30 UTC NOAA

OBBI 210930Z 32009KT 300V010 9999 FEW025 21/13 Q1017 NOSIG


Station Type Date Time Source
OBBI Decoded METAR 2020/01/21 09:30 UTC NOAA

Bahrain International Airport , Bahrain (OBBI) 26-16N 050-39E 2M
Jan 21, 2020 - 04:30 AM EST / 2020.01.21 0930 UTC
Wind: from the NW (320 degrees) at 10 MPH (9 KT) (direction variable):0
Visibility: greater than 7 mile(s):0
Sky conditions: mostly clear
Temperature: 69 F (21 C)
Dew Point: 55 F (13 C)
Relative Humidity: 60%
Pressure (altimeter): 30.03 in. Hg (1017 hPa)
ob: OBBI 210930Z 32009KT 300V010 9999 FEW025 21/13 Q1017 NOSIG
cycle: 9

Station Type Date Time Source
OBBI TAF 2020/01/21 06:44 UTC NOAA

TAF OBBI 210500Z 2106/2212 35008KT CAVOK
BECMG 2115/2117 14010KT PROB30
TEMPO 2115/2121 5000 HZ

Example: see airport list